sensor_id;sensor_type;location;lat;lon;timestamp;P1;durP1;ratioP1;P2;durP2;ratioP2
55007;SDS011;40902;45.116;21.296;2023-06-22T00:01:09;11.82;;;9.85;;
55007;SDS011;40902;45.116;21.296;2023-06-22T00:03:38;13.13;;;9.85;;
55007;SDS011;40902;45.116;21.296;2023-06-22T00:06:04;12.48;;;10.30;;
55007;SDS011;40902;45.116;21.296;2023-06-22T00:08:30;12.38;;;9.45;;
55007;SDS011;40902;45.116;21.296;2023-06-22T00:10:56;11.35;;;8.90;;
55007;SDS011;40902;45.116;21.296;2023-06-22T00:13:22;11.60;;;10.20;;
55007;SDS011;40902;45.116;21.296;2023-06-22T00:15:48;11.68;;;9.73;;
55007;SDS011;40902;45.116;21.296;2023-06-22T00:18:14;12.98;;;10.02;;
55007;SDS011;40902;45.116;21.296;2023-06-22T00:20:43;12.50;;;10.15;;
55007;SDS011;40902;45.116;21.296;2023-06-22T00:23:14;13.10;;;10.23;;
55007;SDS011;40902;45.116;21.296;2023-06-22T00:25:40;11.23;;;9.73;;
55007;SDS011;40902;45.116;21.296;2023-06-22T00:28:07;12.35;;;9.48;;
55007;SDS011;40902;45.116;21.296;2023-06-22T00:30:33;12.65;;;10.63;;
55007;SDS011;40902;45.116;21.296;2023-06-22T00:32:59;12.40;;;10.52;;
55007;SDS011;40902;45.116;21.296;2023-06-22T00:35:26;11.82;;;9.77;;
55007;SDS011;40902;45.116;21.296;2023-06-22T00:37:56;12.65;;;9.60;;
55007;SDS011;40902;45.116;21.296;2023-06-22T00:40:32;14.32;;;10.35;;
55007;SDS011;40902;45.116;21.296;2023-06-22T00:42:59;13.85;;;9.27;;
55007;SDS011;40902;45.116;21.296;2023-06-22T00:45:25;11.48;;;10.27;;
55007;SDS011;40902;45.116;21.296;2023-06-22T00:47:57;13.23;;;9.50;;
55007;SDS011;40902;45.116;21.296;2023-06-22T00:50:27;11.88;;;10.18;;
55007;SDS011;40902;45.116;21.296;2023-06-22T00:52:57;11.05;;;9.35;;
55007;SDS011;40902;45.116;21.296;2023-06-22T00:55:25;10.57;;;9.48;;
55007;SDS011;40902;45.116;21.296;2023-06-22T00:57:52;11.07;;;8.63;;
55007;SDS011;40902;45.116;21.296;2023-06-22T01:00:22;10.77;;;9.68;;
55007;SDS011;40902;45.116;21.296;2023-06-22T01:02:49;10.15;;;9.15;;
55007;SDS011;40902;45.116;21.296;2023-06-22T01:05:17;12.48;;;9.40;;
55007;SDS011;40902;45.116;21.296;2023-06-22T01:10:31;13.95;;;10.13;;
55007;SDS011;40902;45.116;21.296;2023-06-22T01:13:01;16.67;;;12.38;;
55007;SDS011;40902;45.116;21.296;2023-06-22T01:15:28;14.48;;;10.95;;
55007;SDS011;40902;45.116;21.296;2023-06-22T01:17:57;13.85;;;10.77;;
55007;SDS011;40902;45.116;21.296;2023-06-22T01:20:29;13.82;;;10.77;;
55007;SDS011;40902;45.116;21.296;2023-06-22T01:23:07;12.25;;;9.77;;
55007;SDS011;40902;45.116;21.296;2023-06-22T01:25:43;11.32;;;10.15;;
55007;SDS011;40902;45.116;21.296;2023-06-22T01:30:48;14.43;;;10.52;;
55007;SDS011;40902;45.116;21.296;2023-06-22T01:33:15;13.30;;;10.63;;
55007;SDS011;40902;45.116;21.296;2023-06-22T01:35:41;12.43;;;10.00;;
55007;SDS011;40902;45.116;21.296;2023-06-22T01:38:08;12.02;;;10.73;;
55007;SDS011;40902;45.116;21.296;2023-06-22T01:40:34;13.57;;;10.60;;
55007;SDS011;40902;45.116;21.296;2023-06-22T01:43:02;13.80;;;9.82;;
55007;SDS011;40902;45.116;21.296;2023-06-22T01:45:29;11.63;;;10.38;;
55007;SDS011;40902;45.116;21.296;2023-06-22T01:47:55;11.20;;;10.07;;
55007;SDS011;40902;45.116;21.296;2023-06-22T01:50:22;11.50;;;10.32;;
55007;SDS011;40902;45.116;21.296;2023-06-22T01:52:48;11.35;;;10.15;;
55007;SDS011;40902;45.116;21.296;2023-06-22T01:55:14;13.15;;;10.70;;
55007;SDS011;40902;45.116;21.296;2023-06-22T01:57:40;10.98;;;9.85;;
55007;SDS011;40902;45.116;21.296;2023-06-22T02:02:54;12.32;;;9.43;;
55007;SDS011;40902;45.116;21.296;2023-06-22T02:05:19;10.60;;;9.50;;
55007;SDS011;40902;45.116;21.296;2023-06-22T02:07:46;12.60;;;10.77;;
55007;SDS011;40902;45.116;21.296;2023-06-22T02:10:14;10.98;;;9.68;;
55007;SDS011;40902;45.116;21.296;2023-06-22T02:12:41;11.32;;;10.02;;
55007;SDS011;40902;45.116;21.296;2023-06-22T02:15:08;12.82;;;10.38;;
55007;SDS011;40902;45.116;21.296;2023-06-22T02:17:40;11.75;;;10.52;;
55007;SDS011;40902;45.116;21.296;2023-06-22T02:20:13;12.75;;;9.68;;
55007;SDS011;40902;45.116;21.296;2023-06-22T02:22:43;11.70;;;10.45;;
55007;SDS011;40902;45.116;21.296;2023-06-22T02:25:09;12.05;;;10.77;;
55007;SDS011;40902;45.116;21.296;2023-06-22T02:27:35;12.55;;;10.38;;
55007;SDS011;40902;45.116;21.296;2023-06-22T02:30:01;13.98;;;10.38;;
55007;SDS011;40902;45.116;21.296;2023-06-22T02:32:30;11.07;;;9.88;;
55007;SDS011;40902;45.116;21.296;2023-06-22T02:34:59;11.02;;;9.88;;
55007;SDS011;40902;45.116;21.296;2023-06-22T02:37:29;11.63;;;10.18;;
55007;SDS011;40902;45.116;21.296;2023-06-22T02:39:57;15.75;;;10.77;;
55007;SDS011;40902;45.116;21.296;2023-06-22T02:42:23;12.60;;;11.30;;
55007;SDS011;40902;45.116;21.296;2023-06-22T02:44:52;16.85;;;11.10;;
55007;SDS011;40902;45.116;21.296;2023-06-22T02:47:20;12.75;;;10.60;;
55007;SDS011;40902;45.116;21.296;2023-06-22T02:49:46;11.35;;;10.10;;
55007;SDS011;40902;45.116;21.296;2023-06-22T02:52:12;11.70;;;10.48;;
55007;SDS011;40902;45.116;21.296;2023-06-22T02:54:38;16.33;;;10.68;;
55007;SDS011;40902;45.116;21.296;2023-06-22T02:57:04;13.93;;;10.93;;
55007;SDS011;40902;45.116;21.296;2023-06-22T02:59:30;13.45;;;11.60;;
55007;SDS011;40902;45.116;21.296;2023-06-22T03:01:57;18.63;;;11.35;;
55007;SDS011;40902;45.116;21.296;2023-06-22T03:04:23;13.43;;;10.50;;
55007;SDS011;40902;45.116;21.296;2023-06-22T03:06:49;17.88;;;11.40;;
55007;SDS011;40902;45.116;21.296;2023-06-22T03:09:17;15.70;;;10.77;;
55007;SDS011;40902;45.116;21.296;2023-06-22T03:11:43;16.90;;;11.68;;
55007;SDS011;40902;45.116;21.296;2023-06-22T03:14:10;15.23;;;11.07;;
55007;SDS011;40902;45.116;21.296;2023-06-22T03:16:36;16.42;;;11.23;;
55007;SDS011;40902;45.116;21.296;2023-06-22T03:19:02;15.50;;;11.07;;
55007;SDS011;40902;45.116;21.296;2023-06-22T03:21:28;14.10;;;11.32;;
55007;SDS011;40902;45.116;21.296;2023-06-22T03:23:54;13.68;;;11.55;;
55007;SDS011;40902;45.116;21.296;2023-06-22T03:26:21;15.73;;;11.68;;
55007;SDS011;40902;45.116;21.296;2023-06-22T03:28:48;16.85;;;12.50;;
55007;SDS011;40902;45.116;21.296;2023-06-22T03:31:14;13.98;;;11.93;;
55007;SDS011;40902;45.116;21.296;2023-06-22T03:33:40;16.27;;;11.98;;
55007;SDS011;40902;45.116;21.296;2023-06-22T03:36:06;13.88;;;12.10;;
55007;SDS011;40902;45.116;21.296;2023-06-22T03:38:33;13.52;;;11.35;;
55007;SDS011;40902;45.116;21.296;2023-06-22T03:40:59;15.35;;;11.45;;
55007;SDS011;40902;45.116;21.296;2023-06-22T03:43:25;16.58;;;11.80;;
55007;SDS011;40902;45.116;21.296;2023-06-22T03:45:52;13.40;;;11.55;;
55007;SDS011;40902;45.116;21.296;2023-06-22T03:48:18;17.80;;;12.95;;
55007;SDS011;40902;45.116;21.296;2023-06-22T03:50:44;16.63;;;12.57;;
55007;SDS011;40902;45.116;21.296;2023-06-22T03:53:15;15.10;;;12.18;;
55007;SDS011;40902;45.116;21.296;2023-06-22T03:55:47;15.52;;;11.60;;
55007;SDS011;40902;45.116;21.296;2023-06-22T03:58:14;16.58;;;12.32;;
55007;SDS011;40902;45.116;21.296;2023-06-22T04:00:40;15.68;;;11.88;;
55007;SDS011;40902;45.116;21.296;2023-06-22T04:03:07;14.63;;;11.35;;
55007;SDS011;40902;45.116;21.296;2023-06-22T04:05:33;17.27;;;11.55;;
55007;SDS011;40902;45.116;21.296;2023-06-22T04:07:59;13.70;;;11.52;;
55007;SDS011;40902;45.116;21.296;2023-06-22T04:10:25;15.63;;;12.13;;
55007;SDS011;40902;45.116;21.296;2023-06-22T04:12:53;13.32;;;11.45;;
55007;SDS011;40902;45.116;21.296;2023-06-22T04:15:19;15.98;;;11.65;;
55007;SDS011;40902;45.116;21.296;2023-06-22T04:17:46;13.82;;;11.75;;
55007;SDS011;40902;45.116;21.296;2023-06-22T04:20:12;12.60;;;11.30;;
55007;SDS011;40902;45.116;21.296;2023-06-22T04:22:38;14.38;;;11.13;;
55007;SDS011;40902;45.116;21.296;2023-06-22T04:25:05;14.98;;;11.65;;
55007;SDS011;40902;45.116;21.296;2023-06-22T04:27:32;13.18;;;11.75;;
55007;SDS011;40902;45.116;21.296;2023-06-22T04:30:05;16.02;;;11.57;;
55007;SDS011;40902;45.116;21.296;2023-06-22T04:32:34;12.70;;;10.93;;
55007;SDS011;40902;45.116;21.296;2023-06-22T04:35:04;12.93;;;11.38;;
55007;SDS011;40902;45.116;21.296;2023-06-22T04:37:32;13.45;;;11.10;;
55007;SDS011;40902;45.116;21.296;2023-06-22T04:40:00;12.77;;;10.57;;
55007;SDS011;40902;45.116;21.296;2023-06-22T04:42:30;11.82;;;10.32;;
55007;SDS011;40902;45.116;21.296;2023-06-22T04:44:57;13.20;;;11.73;;
55007;SDS011;40902;45.116;21.296;2023-06-22T04:47:27;13.60;;;10.98;;
55007;SDS011;40902;45.116;21.296;2023-06-22T04:49:54;12.55;;;11.05;;
55007;SDS011;40902;45.116;21.296;2023-06-22T04:52:22;12.65;;;10.88;;
55007;SDS011;40902;45.116;21.296;2023-06-22T04:54:49;12.32;;;11.13;;
55007;SDS011;40902;45.116;21.296;2023-06-22T04:57:20;12.00;;;10.77;;
55007;SDS011;40902;45.116;21.296;2023-06-22T04:59:49;12.65;;;11.10;;
55007;SDS011;40902;45.116;21.296;2023-06-22T05:02:20;11.98;;;10.02;;
55007;SDS011;40902;45.116;21.296;2023-06-22T05:04:48;11.40;;;10.20;;
55007;SDS011;40902;45.116;21.296;2023-06-22T05:07:16;11.40;;;10.27;;
55007;SDS011;40902;45.116;21.296;2023-06-22T05:09:44;13.88;;;10.77;;
55007;SDS011;40902;45.116;21.296;2023-06-22T05:12:13;11.93;;;10.60;;
55007;SDS011;40902;45.116;21.296;2023-06-22T05:14:41;14.50;;;10.32;;
55007;SDS011;40902;45.116;21.296;2023-06-22T05:17:07;11.82;;;10.52;;
55007;SDS011;40902;45.116;21.296;2023-06-22T05:19:38;11.18;;;10.05;;
55007;SDS011;40902;45.116;21.296;2023-06-22T05:22:04;13.07;;;10.88;;
55007;SDS011;40902;45.116;21.296;2023-06-22T05:24:33;11.15;;;10.05;;
55007;SDS011;40902;45.116;21.296;2023-06-22T05:26:59;11.27;;;10.02;;
55007;SDS011;40902;45.116;21.296;2023-06-22T05:29:25;11.10;;;9.55;;
55007;SDS011;40902;45.116;21.296;2023-06-22T05:31:51;11.40;;;10.20;;
55007;SDS011;40902;45.116;21.296;2023-06-22T05:34:17;10.75;;;9.65;;
55007;SDS011;40902;45.116;21.296;2023-06-22T05:36:44;12.85;;;10.18;;
55007;SDS011;40902;45.116;21.296;2023-06-22T05:39:13;11.60;;;8.88;;
55007;SDS011;40902;45.116;21.296;2023-06-22T05:41:40;13.35;;;10.07;;
55007;SDS011;40902;45.116;21.296;2023-06-22T05:44:06;13.52;;;9.43;;
55007;SDS011;40902;45.116;21.296;2023-06-22T05:46:32;11.75;;;10.52;;
55007;SDS011;40902;45.116;21.296;2023-06-22T05:48:58;11.57;;;9.38;;
55007;SDS011;40902;45.116;21.296;2023-06-22T05:51:24;11.68;;;9.45;;
55007;SDS011;40902;45.116;21.296;2023-06-22T05:53:50;12.85;;;9.77;;
55007;SDS011;40902;45.116;21.296;2023-06-22T05:56:16;11.63;;;9.82;;
55007;SDS011;40902;45.116;21.296;2023-06-22T05:58:43;10.82;;;8.55;;
55007;SDS011;40902;45.116;21.296;2023-06-22T06:01:11;12.15;;;9.98;;
55007;SDS011;40902;45.116;21.296;2023-06-22T06:03:37;11.13;;;9.95;;
55007;SDS011;40902;45.116;21.296;2023-06-22T06:06:06;12.43;;;9.27;;
55007;SDS011;40902;45.116;21.296;2023-06-22T06:08:32;10.35;;;9.07;;
55007;SDS011;40902;45.116;21.296;2023-06-22T06:10:58;10.90;;;9.10;;
55007;SDS011;40902;45.116;21.296;2023-06-22T06:13:24;11.45;;;8.95;;
55007;SDS011;40902;45.116;21.296;2023-06-22T06:15:50;9.70;;;8.77;;
55007;SDS011;40902;45.116;21.296;2023-06-22T06:18:19;11.13;;;8.82;;
55007;SDS011;40902;45.116;21.296;2023-06-22T06:20:45;10.10;;;8.75;;
55007;SDS011;40902;45.116;21.296;2023-06-22T06:23:12;11.05;;;9.23;;
55007;SDS011;40902;45.116;21.296;2023-06-22T06:25:38;11.68;;;9.32;;
55007;SDS011;40902;45.116;21.296;2023-06-22T06:28:04;10.45;;;9.27;;
55007;SDS011;40902;45.116;21.296;2023-06-22T06:30:30;10.32;;;8.93;;
55007;SDS011;40902;45.116;21.296;2023-06-22T06:32:56;12.55;;;9.48;;
55007;SDS011;40902;45.116;21.296;2023-06-22T06:35:22;10.77;;;9.63;;
55007;SDS011;40902;45.116;21.296;2023-06-22T06:37:49;12.55;;;9.48;;
55007;SDS011;40902;45.116;21.296;2023-06-22T06:40:16;10.23;;;9.00;;
55007;SDS011;40902;45.116;21.296;2023-06-22T06:42:43;10.00;;;8.93;;
55007;SDS011;40902;45.116;21.296;2023-06-22T06:45:10;10.98;;;8.93;;
55007;SDS011;40902;45.116;21.296;2023-06-22T06:47:37;11.10;;;10.00;;
55007;SDS011;40902;45.116;21.296;2023-06-22T06:50:03;10.80;;;9.70;;
55007;SDS011;40902;45.116;21.296;2023-06-22T06:52:30;10.68;;;9.57;;
55007;SDS011;40902;45.116;21.296;2023-06-22T06:54:59;12.95;;;9.48;;
55007;SDS011;40902;45.116;21.296;2023-06-22T06:57:25;12.18;;;9.18;;
55007;SDS011;40902;45.116;21.296;2023-06-22T06:59:55;12.48;;;9.15;;
55007;SDS011;40902;45.116;21.296;2023-06-22T07:02:22;10.13;;;9.00;;
55007;SDS011;40902;45.116;21.296;2023-06-22T07:04:48;11.13;;;9.00;;
55007;SDS011;40902;45.116;21.296;2023-06-22T07:07:16;10.13;;;9.13;;
55007;SDS011;40902;45.116;21.296;2023-06-22T07:09:43;10.00;;;8.75;;
55007;SDS011;40902;45.116;21.296;2023-06-22T07:12:09;11.90;;;9.35;;
55007;SDS011;40902;45.116;21.296;2023-06-22T07:14:35;11.18;;;9.73;;
55007;SDS011;40902;45.116;21.296;2023-06-22T07:17:01;11.55;;;10.05;;
55007;SDS011;40902;45.116;21.296;2023-06-22T07:19:27;11.18;;;9.23;;
55007;SDS011;40902;45.116;21.296;2023-06-22T07:21:53;10.98;;;9.80;;
55007;SDS011;40902;45.116;21.296;2023-06-22T07:24:20;14.55;;;8.80;;
55007;SDS011;40902;45.116;21.296;2023-06-22T07:26:48;12.13;;;9.30;;
55007;SDS011;40902;45.116;21.296;2023-06-22T07:29:18;12.45;;;9.60;;
55007;SDS011;40902;45.116;21.296;2023-06-22T07:31:49;14.98;;;9.52;;
55007;SDS011;40902;45.116;21.296;2023-06-22T07:34:16;13.13;;;9.98;;
55007;SDS011;40902;45.116;21.296;2023-06-22T07:36:42;11.10;;;9.30;;
55007;SDS011;40902;45.116;21.296;2023-06-22T07:39:09;10.65;;;9.48;;
55007;SDS011;40902;45.116;21.296;2023-06-22T07:41:35;11.32;;;9.65;;
55007;SDS011;40902;45.116;21.296;2023-06-22T07:44:02;12.80;;;9.75;;
55007;SDS011;40902;45.116;21.296;2023-06-22T07:46:28;12.73;;;9.52;;
55007;SDS011;40902;45.116;21.296;2023-06-22T07:48:57;10.52;;;9.43;;
55007;SDS011;40902;45.116;21.296;2023-06-22T07:51:24;12.68;;;9.68;;
55007;SDS011;40902;45.116;21.296;2023-06-22T07:53:50;12.38;;;9.13;;
55007;SDS011;40902;45.116;21.296;2023-06-22T07:56:16;11.52;;;9.70;;
55007;SDS011;40902;45.116;21.296;2023-06-22T07:58:46;10.80;;;9.27;;
55007;SDS011;40902;45.116;21.296;2023-06-22T08:01:15;10.50;;;9.40;;
55007;SDS011;40902;45.116;21.296;2023-06-22T08:03:42;13.40;;;9.27;;
55007;SDS011;40902;45.116;21.296;2023-06-22T08:06:08;12.32;;;10.00;;
55007;SDS011;40902;45.116;21.296;2023-06-22T08:08:37;11.55;;;10.30;;
55007;SDS011;40902;45.116;21.296;2023-06-22T08:11:03;11.88;;;10.05;;
55007;SDS011;40902;45.116;21.296;2023-06-22T08:13:30;11.10;;;9.98;;
55007;SDS011;40902;45.116;21.296;2023-06-22T08:15:56;12.27;;;9.90;;
55007;SDS011;40902;45.116;21.296;2023-06-22T08:18:27;11.77;;;10.57;;
55007;SDS011;40902;45.116;21.296;2023-06-22T08:20:53;16.40;;;11.27;;
55007;SDS011;40902;45.116;21.296;2023-06-22T08:23:20;13.77;;;11.27;;
55007;SDS011;40902;45.116;21.296;2023-06-22T08:25:46;13.15;;;11.43;;
55007;SDS011;40902;45.116;21.296;2023-06-22T08:28:13;15.18;;;11.55;;
55007;SDS011;40902;45.116;21.296;2023-06-22T08:30:39;13.10;;;11.40;;
55007;SDS011;40902;45.116;21.296;2023-06-22T08:33:05;13.32;;;11.18;;
55007;SDS011;40902;45.116;21.296;2023-06-22T08:35:31;13.65;;;11.05;;
55007;SDS011;40902;45.116;21.296;2023-06-22T08:37:57;14.60;;;10.93;;
55007;SDS011;40902;45.116;21.296;2023-06-22T08:40:27;12.35;;;10.90;;
55007;SDS011;40902;45.116;21.296;2023-06-22T08:42:54;15.18;;;12.13;;
55007;SDS011;40902;45.116;21.296;2023-06-22T08:45:20;19.42;;;13.05;;
55007;SDS011;40902;45.116;21.296;2023-06-22T08:47:46;17.67;;;13.85;;
55007;SDS011;40902;45.116;21.296;2023-06-22T08:50:13;18.85;;;14.63;;
55007;SDS011;40902;45.116;21.296;2023-06-22T08:52:39;19.08;;;15.27;;
55007;SDS011;40902;45.116;21.296;2023-06-22T08:55:08;17.52;;;14.55;;
55007;SDS011;40902;45.116;21.296;2023-06-22T08:57:35;17.40;;;14.07;;
55007;SDS011;40902;45.116;21.296;2023-06-22T09:00:07;16.65;;;13.00;;
55007;SDS011;40902;45.116;21.296;2023-06-22T09:02:41;13.10;;;11.70;;
55007;SDS011;40902;45.116;21.296;2023-06-22T09:05:07;18.08;;;12.25;;
55007;SDS011;40902;45.116;21.296;2023-06-22T09:07:33;15.23;;;12.05;;
55007;SDS011;40902;45.116;21.296;2023-06-22T09:09:59;17.92;;;12.07;;
55007;SDS011;40902;45.116;21.296;2023-06-22T09:12:26;14.23;;;11.23;;
55007;SDS011;40902;45.116;21.296;2023-06-22T09:14:55;12.75;;;9.30;;
55007;SDS011;40902;45.116;21.296;2023-06-22T09:17:22;11.00;;;8.70;;
55007;SDS011;40902;45.116;21.296;2023-06-22T09:19:48;14.30;;;9.90;;
55007;SDS011;40902;45.116;21.296;2023-06-22T09:22:14;13.23;;;11.85;;
55007;SDS011;40902;45.116;21.296;2023-06-22T09:24:40;19.40;;;14.95;;
55007;SDS011;40902;45.116;21.296;2023-06-22T09:27:06;20.88;;;13.32;;
55007;SDS011;40902;45.116;21.296;2023-06-22T09:29:32;18.70;;;12.93;;
55007;SDS011;40902;45.116;21.296;2023-06-22T09:31:59;20.17;;;12.63;;
55007;SDS011;40902;45.116;21.296;2023-06-22T09:34:25;15.70;;;11.95;;
55007;SDS011;40902;45.116;21.296;2023-06-22T09:36:52;16.45;;;12.50;;
55007;SDS011;40902;45.116;21.296;2023-06-22T09:39:18;15.90;;;11.50;;
55007;SDS011;40902;45.116;21.296;2023-06-22T09:41:46;16.05;;;12.45;;
55007;SDS011;40902;45.116;21.296;2023-06-22T09:44:13;18.00;;;12.88;;
55007;SDS011;40902;45.116;21.296;2023-06-22T09:46:39;16.13;;;13.15;;
55007;SDS011;40902;45.116;21.296;2023-06-22T09:49:05;18.42;;;13.70;;
55007;SDS011;40902;45.116;21.296;2023-06-22T09:51:31;17.27;;;14.00;;
55007;SDS011;40902;45.116;21.296;2023-06-22T09:53:57;15.93;;;12.80;;
55007;SDS011;40902;45.116;21.296;2023-06-22T09:56:23;15.85;;;13.98;;
55007;SDS011;40902;45.116;21.296;2023-06-22T09:58:53;14.63;;;13.07;;
55007;SDS011;40902;45.116;21.296;2023-06-22T10:01:19;13.68;;;12.10;;
55007;SDS011;40902;45.116;21.296;2023-06-22T10:03:46;17.73;;;12.70;;
55007;SDS011;40902;45.116;21.296;2023-06-22T10:06:12;13.30;;;11.90;;
55007;SDS011;40902;45.116;21.296;2023-06-22T10:08:38;14.80;;;11.52;;
55007;SDS011;40902;45.116;21.296;2023-06-22T10:11:05;13.57;;;12.15;;
55007;SDS011;40902;45.116;21.296;2023-06-22T10:13:31;13.35;;;11.75;;
55007;SDS011;40902;45.116;21.296;2023-06-22T10:16:00;13.38;;;11.43;;
55007;SDS011;40902;45.116;21.296;2023-06-22T10:18:26;16.10;;;11.68;;
55007;SDS011;40902;45.116;21.296;2023-06-22T10:20:52;13.15;;;11.32;;
55007;SDS011;40902;45.116;21.296;2023-06-22T10:23:21;13.02;;;11.63;;
55007;SDS011;40902;45.116;21.296;2023-06-22T10:25:47;12.38;;;11.07;;
55007;SDS011;40902;45.116;21.296;2023-06-22T10:28:13;13.65;;;11.55;;
55007;SDS011;40902;45.116;21.296;2023-06-22T10:30:40;12.70;;;11.40;;
55007;SDS011;40902;45.116;21.296;2023-06-22T10:33:10;14.07;;;10.93;;
55007;SDS011;40902;45.116;21.296;2023-06-22T10:35:36;11.98;;;10.68;;
55007;SDS011;40902;45.116;21.296;2023-06-22T10:38:05;11.90;;;10.57;;
55007;SDS011;40902;45.116;21.296;2023-06-22T10:40:31;9.88;;;8.98;;
55007;SDS011;40902;45.116;21.296;2023-06-22T10:42:57;12.05;;;10.80;;
55007;SDS011;40902;45.116;21.296;2023-06-22T10:45:23;10.88;;;9.70;;
55007;SDS011;40902;45.116;21.296;2023-06-22T10:47:55;13.73;;;9.27;;
55007;SDS011;40902;45.116;21.296;2023-06-22T10:50:21;12.32;;;9.85;;
55007;SDS011;40902;45.116;21.296;2023-06-22T10:52:49;10.70;;;9.50;;
55007;SDS011;40902;45.116;21.296;2023-06-22T10:55:15;12.38;;;9.25;;
55007;SDS011;40902;45.116;21.296;2023-06-22T10:57:41;12.77;;;9.68;;
55007;SDS011;40902;45.116;21.296;2023-06-22T11:00:09;14.82;;;9.75;;
55007;SDS011;40902;45.116;21.296;2023-06-22T11:02:37;10.43;;;8.40;;
55007;SDS011;40902;45.116;21.296;2023-06-22T11:05:04;10.35;;;9.23;;
55007;SDS011;40902;45.116;21.296;2023-06-22T11:07:30;10.38;;;9.27;;
55007;SDS011;40902;45.116;21.296;2023-06-22T11:09:56;12.20;;;8.75;;
55007;SDS011;40902;45.116;21.296;2023-06-22T11:12:22;9.85;;;8.55;;
55007;SDS011;40902;45.116;21.296;2023-06-22T11:14:48;16.33;;;9.50;;
55007;SDS011;40902;45.116;21.296;2023-06-22T11:17:16;12.32;;;8.48;;
55007;SDS011;40902;45.116;21.296;2023-06-22T11:19:43;9.27;;;8.35;;
55007;SDS011;40902;45.116;21.296;2023-06-22T11:22:10;11.00;;;8.30;;
55007;SDS011;40902;45.116;21.296;2023-06-22T11:24:36;10.43;;;8.35;;
55007;SDS011;40902;45.116;21.296;2023-06-22T11:27:05;9.57;;;8.32;;
55007;SDS011;40902;45.116;21.296;2023-06-22T11:29:31;10.70;;;8.10;;
55007;SDS011;40902;45.116;21.296;2023-06-22T11:31:57;11.52;;;8.88;;
55007;SDS011;40902;45.116;21.296;2023-06-22T11:34:23;12.88;;;9.75;;
55007;SDS011;40902;45.116;21.296;2023-06-22T11:36:56;10.32;;;8.05;;
55007;SDS011;40902;45.116;21.296;2023-06-22T11:39:22;9.63;;;8.23;;
55007;SDS011;40902;45.116;21.296;2023-06-22T11:41:48;10.40;;;7.70;;
55007;SDS011;40902;45.116;21.296;2023-06-22T11:44:15;9.95;;;8.23;;
55007;SDS011;40902;45.116;21.296;2023-06-22T11:46:41;8.82;;;7.93;;
55007;SDS011;40902;45.116;21.296;2023-06-22T11:49:09;12.13;;;7.57;;
55007;SDS011;40902;45.116;21.296;2023-06-22T11:51:35;10.43;;;7.97;;
55007;SDS011;40902;45.116;21.296;2023-06-22T11:54:01;8.60;;;7.45;;
55007;SDS011;40902;45.116;21.296;2023-06-22T11:56:28;9.82;;;8.05;;
55007;SDS011;40902;45.116;21.296;2023-06-22T11:58:57;10.73;;;7.32;;
55007;SDS011;40902;45.116;21.296;2023-06-22T12:01:23;10.13;;;7.95;;
55007;SDS011;40902;45.116;21.296;2023-06-22T12:03:52;8.75;;;7.25;;
55007;SDS011;40902;45.116;21.296;2023-06-22T12:06:18;9.48;;;7.70;;
55007;SDS011;40902;45.116;21.296;2023-06-22T12:08:46;8.90;;;7.00;;
55007;SDS011;40902;45.116;21.296;2023-06-22T12:11:12;11.07;;;7.28;;
55007;SDS011;40902;45.116;21.296;2023-06-22T12:13:38;11.27;;;6.80;;
55007;SDS011;40902;45.116;21.296;2023-06-22T12:16:12;9.15;;;7.05;;
55007;SDS011;40902;45.116;21.296;2023-06-22T12:18:40;10.35;;;7.30;;
55007;SDS011;40902;45.116;21.296;2023-06-22T12:21:09;9.82;;;7.32;;
55007;SDS011;40902;45.116;21.296;2023-06-22T12:23:37;9.63;;;6.88;;
55007;SDS011;40902;45.116;21.296;2023-06-22T12:26:03;7.47;;;6.63;;
55007;SDS011;40902;45.116;21.296;2023-06-22T12:28:30;8.32;;;6.20;;
55007;SDS011;40902;45.116;21.296;2023-06-22T12:30:56;8.80;;;7.07;;
55007;SDS011;40902;45.116;21.296;2023-06-22T12:33:22;8.82;;;6.35;;
55007;SDS011;40902;45.116;21.296;2023-06-22T12:35:48;8.00;;;6.28;;
55007;SDS011;40902;45.116;21.296;2023-06-22T12:38:14;9.63;;;6.68;;
55007;SDS011;40902;45.116;21.296;2023-06-22T12:40:40;8.75;;;6.70;;
55007;SDS011;40902;45.116;21.296;2023-06-22T12:43:06;9.45;;;6.35;;
55007;SDS011;40902;45.116;21.296;2023-06-22T12:45:32;9.25;;;6.85;;
55007;SDS011;40902;45.116;21.296;2023-06-22T12:47:59;10.60;;;6.60;;
55007;SDS011;40902;45.116;21.296;2023-06-22T12:50:26;8.23;;;6.60;;
55007;SDS011;40902;45.116;21.296;2023-06-22T12:52:52;7.53;;;6.20;;
55007;SDS011;40902;45.116;21.296;2023-06-22T12:55:18;9.82;;;6.20;;
55007;SDS011;40902;45.116;21.296;2023-06-22T12:57:44;9.90;;;6.07;;
55007;SDS011;40902;45.116;21.296;2023-06-22T13:00:11;9.38;;;6.75;;
55007;SDS011;40902;45.116;21.296;2023-06-22T13:02:39;8.77;;;6.55;;
55007;SDS011;40902;45.116;21.296;2023-06-22T13:05:10;8.45;;;6.65;;
55007;SDS011;40902;45.116;21.296;2023-06-22T13:07:39;7.80;;;6.82;;
55007;SDS011;40902;45.116;21.296;2023-06-22T13:10:07;8.30;;;6.78;;
55007;SDS011;40902;45.116;21.296;2023-06-22T13:12:33;9.15;;;6.70;;
55007;SDS011;40902;45.116;21.296;2023-06-22T13:14:59;9.18;;;6.25;;
55007;SDS011;40902;45.116;21.296;2023-06-22T13:17:25;7.75;;;6.95;;
55007;SDS011;40902;45.116;21.296;2023-06-22T13:19:51;7.60;;;6.70;;
55007;SDS011;40902;45.116;21.296;2023-06-22T13:22:30;10.35;;;7.10;;
55007;SDS011;40902;45.116;21.296;2023-06-22T13:24:57;7.78;;;6.72;;
55007;SDS011;40902;45.116;21.296;2023-06-22T13:27:23;8.75;;;6.63;;
55007;SDS011;40902;45.116;21.296;2023-06-22T13:29:50;8.30;;;6.90;;
55007;SDS011;40902;45.116;21.296;2023-06-22T13:32:16;8.43;;;7.05;;
55007;SDS011;40902;45.116;21.296;2023-06-22T13:34:43;7.20;;;6.50;;
55007;SDS011;40902;45.116;21.296;2023-06-22T13:37:09;9.10;;;6.57;;
55007;SDS011;40902;45.116;21.296;2023-06-22T13:39:35;7.78;;;5.95;;
55007;SDS011;40902;45.116;21.296;2023-06-22T13:42:01;8.55;;;6.50;;
55007;SDS011;40902;45.116;21.296;2023-06-22T13:44:27;7.90;;;6.07;;
55007;SDS011;40902;45.116;21.296;2023-06-22T13:46:54;8.18;;;6.45;;
55007;SDS011;40902;45.116;21.296;2023-06-22T13:49:23;8.68;;;6.68;;
55007;SDS011;40902;45.116;21.296;2023-06-22T13:51:51;8.05;;;6.13;;
55007;SDS011;40902;45.116;21.296;2023-06-22T13:54:17;8.80;;;6.40;;
55007;SDS011;40902;45.116;21.296;2023-06-22T13:56:43;7.95;;;6.35;;
55007;SDS011;40902;45.116;21.296;2023-06-22T13:59:09;7.13;;;6.38;;
55007;SDS011;40902;45.116;21.296;2023-06-22T14:01:36;7.32;;;5.60;;
55007;SDS011;40902;45.116;21.296;2023-06-22T14:04:03;9.82;;;6.07;;
55007;SDS011;40902;45.116;21.296;2023-06-22T14:06:30;8.88;;;5.60;;
55007;SDS011;40902;45.116;21.296;2023-06-22T14:08:56;8.00;;;6.18;;
55007;SDS011;40902;45.116;21.296;2023-06-22T14:11:24;7.30;;;6.00;;
55007;SDS011;40902;45.116;21.296;2023-06-22T14:13:51;6.97;;;5.97;;
55007;SDS011;40902;45.116;21.296;2023-06-22T14:16:17;8.45;;;5.88;;
55007;SDS011;40902;45.116;21.296;2023-06-22T14:18:44;8.85;;;6.10;;
55007;SDS011;40902;45.116;21.296;2023-06-22T14:21:10;7.93;;;6.30;;
55007;SDS011;40902;45.116;21.296;2023-06-22T14:23:36;8.38;;;6.50;;
55007;SDS011;40902;45.116;21.296;2023-06-22T14:26:03;7.30;;;6.20;;